LOWW

Vienna International Airport

Vienna, Austria
TAF LOWW 201115Z 2012/2118 36007KT 9999 FEW045 TX30/2014Z TN16/2102Z BECMG 2017/2020 13004KT CAVOK BECMG 2108/2110 15013KT 9999 FEW060 FEW060CB PROB30 TEMPO 2113/2116 22020G30KT 9000 TSRA BKN040 SCT050CB TEMPO 2116/2118 22020G30KT 5000 TSRA BKN030 SCT050CB
Issued Valid From Valid To
Jul-20 @ 11:15 UTC
(3 hours ago)
Jul-20 @ 12:00 UTC
(2 hours ago)
Jul-21 @ 18:00 UTC
(-1 days ago)
Jul-20 @ 12:00 to Jul-20 @ 17:00
TAF LOWW 201115Z 2012/2118 36007KT 9999 FEW045 TX30/2014Z TN16/2102Z
Wind Visibility Clouds
360° at 7 knots 10,000+ meters
  • Few at 4,500' AGL
Becoming Jul-20 @ 17:00 to Jul-21 @ 08:00
BECMG 2017/2020 13004KT CAVOK
Wind Visibility Clouds Conditions
130° at 4 knots 10,000+ meters
  • No significant clouds
Becoming Jul-21 @ 08:00 to Jul-21 @ 18:00
BECMG 2108/2110 15013KT 9999 FEW060 FEW060CB
Wind Visibility Clouds Conditions
150° at 13 knots 10,000+ meters
  • Few at 6,000' AGL
  • Few at 6,000' AGL
Temporary  (Probability 30%) Jul-21 @ 13:00 to Jul-21 @ 16:00
PROB30 TEMPO 2113/2116 22020G30KT 9000 TSRA BKN040 SCT050CB
Wind Visibility Clouds Conditions
220° at 20 knots
 Gusting to 30 knots
8,996 meters
  • Broken at 4,000' AGL
  • Scattered at 5,000' AGL
  • Thunderstorm
  • Rain
Temporary Jul-21 @ 16:00 to Jul-21 @ 18:00
TEMPO 2116/2118 22020G30KT 5000 TSRA BKN030 SCT050CB
Wind Visibility Clouds Conditions
220° at 20 knots
 Gusting to 30 knots
5,005 meters
  • Broken at 3,000' AGL
  • Scattered at 5,000' AGL
  • Thunderstorm
  • Rain
TAF LOWW 201115Z 2012/2118 36007KT 9999 FEW045 TX30/2014Z TN16/2102Z BECMG 2017/2020 13004KT CAVOK BECMG 2108/2110 15013KT 9999 FEW060 FEW060CB PROB30 TEMPO 2113/2116 22020G30KT 9000 TSRA BKN040 SCT050CB TEMPO 2116/2118 22020G30KT 5000 TSRA BKN030 SCT050CB
Issued Jul-20 @ 11:15 UTC
(3 hours ago)
Valid From Jul-20 @ 12:00 UTC
(2 hours ago)
Valid To Jul-21 @ 18:00 UTC
(-1 days ago)
Jul-20 @ 12:00 - Jul-20 @ 17:00
Wind Visibility
360° at 7 knots 10,000+ meters
Clouds
  • Few at 4,500' AGL
Becoming Jul-20 @ 17:00 - Jul-21 @ 08:00
Wind Visibility
130° at 4 knots 10,000+ meters
Clouds
  • No significant clouds
Conditions
Becoming Jul-21 @ 08:00 - Jul-21 @ 18:00
Wind Visibility
150° at 13 knots 10,000+ meters
Clouds
  • Few at 6,000' AGL
  • Few at 6,000' AGL
Conditions
Probability 30% Temporary Jul-21 @ 13:00 - Jul-21 @ 16:00
Wind Visibility
220° at 20 knots
 Gusting to 30 knots
8,996 meters
Clouds
  • Broken at 4,000' AGL
  • Scattered at 5,000' AGL
Conditions
  • Thunderstorm
  • Rain
Temporary Jul-21 @ 16:00 - Jul-21 @ 18:00
Wind Visibility
220° at 20 knots
 Gusting to 30 knots
5,005 meters
Clouds
  • Broken at 3,000' AGL
  • Scattered at 5,000' AGL
Conditions
  • Thunderstorm
  • Rain